createdAt,value
2022-07-25T00:00:16.241Z,97935.06
2022-07-25T00:02:19.404Z,97939.72
2022-07-25T00:04:23.330Z,97929.63
2022-07-25T00:06:26.346Z,97931.66
2022-07-25T00:08:29.379Z,97926.72
2022-07-25T00:10:32.442Z,97925.25
2022-07-25T00:12:35.645Z,97926.47
2022-07-25T00:14:39.067Z,97927.84
2022-07-25T00:16:43.530Z,97926.34
2022-07-25T00:18:47.129Z,97927.75
2022-07-25T00:20:50.163Z,97921.16
2022-07-25T00:22:53.163Z,97919.47
2022-07-25T00:24:56.420Z,97918.84
2022-07-25T00:26:59.529Z,97925.41
2022-07-25T00:29:02.701Z,97914.94
2022-07-25T00:31:05.967Z,97913.78
2022-07-25T00:33:10.567Z,97921.97
2022-07-25T00:35:13.652Z,97918.84
2022-07-25T00:37:16.728Z,97912.88
2022-07-25T00:39:20.023Z,97920.41
2022-07-25T00:41:23.038Z,97916.28
2022-07-25T00:43:26.037Z,97912.97
2022-07-25T00:45:29.159Z,97919.66
2022-07-25T00:47:32.234Z,97917.38
2022-07-25T00:49:36.706Z,97913.25
2022-07-25T00:51:39.692Z,97922.44
2022-07-25T00:53:42.756Z,97914.81
2022-07-25T00:55:46.176Z,97918.88
2022-07-25T00:57:49.259Z,97922.06
2022-07-25T00:59:52.414Z,97920.97
2022-07-25T01:01:55.828Z,97921.94
2022-07-25T01:03:58.963Z,97918.66
2022-07-25T01:06:03.622Z,97914.53
2022-07-25T01:08:07.382Z,97910.41
2022-07-25T01:10:12.528Z,97909.75
2022-07-25T01:12:15.567Z,97902.81
2022-07-25T01:14:18.708Z,97909.13
2022-07-25T01:16:21.980Z,97907.63
2022-07-25T01:18:25.115Z,97907.00
2022-07-25T01:20:30.671Z,97910.03
2022-07-25T01:22:33.753Z,97912.22
2022-07-25T01:24:36.951Z,97919.53
2022-07-25T01:26:40.042Z,97917.06
2022-07-25T01:28:43.075Z,97909.63
2022-07-25T01:30:46.154Z,97912.47
2022-07-25T01:32:49.541Z,97908.31
2022-07-25T01:34:52.552Z,97902.38
2022-07-25T01:36:56.958Z,97905.22
2022-07-25T01:39:00.076Z,97900.06
2022-07-25T01:41:03.181Z,97896.75
2022-07-25T01:43:06.499Z,97899.59
2022-07-25T01:45:10.406Z,97895.47
2022-07-25T01:47:13.393Z,97896.47
2022-07-25T01:49:16.490Z,97896.66
2022-07-25T01:51:20.374Z,97896.00
2022-07-25T01:53:24.994Z,97905.97
2022-07-25T01:55:29.442Z,97898.19
2022-07-25T01:57:33.936Z,97894.06
2022-07-25T01:59:40.341Z,97888.28
2022-07-25T02:01:44.048Z,97889.47
2022-07-25T02:03:47.169Z,97894.31
2022-07-25T02:05:50.193Z,97890.19
2022-07-25T02:07:53.197Z,97886.06
2022-07-25T02:09:57.812Z,97887.91
2022-07-25T02:12:00.817Z,97888.06
2022-07-25T02:14:04.498Z,97880.63
2022-07-25T02:16:07.840Z,97882.84
2022-07-25T02:18:11.010Z,97872.75
2022-07-25T02:20:13.980Z,97869.41
2022-07-25T02:22:17.084Z,97865.31
2022-07-25T02:24:20.189Z,97865.31
2022-07-25T02:26:24.624Z,97862.00
2022-07-25T02:28:28.249Z,97869.31
2022-07-25T02:30:31.385Z,97867.00
2022-07-25T02:32:34.518Z,97865.06
2022-07-25T02:34:37.493Z,97868.53
2022-07-25T02:36:40.572Z,97874.03
2022-07-25T02:38:43.751Z,97867.41
2022-07-25T02:40:46.819Z,97867.41
2022-07-25T02:42:51.350Z,97869.41
2022-07-25T02:44:54.424Z,97865.91
2022-07-25T02:46:57.451Z,97860.97
2022-07-25T02:49:01.042Z,97859.50
2022-07-25T02:51:04.466Z,97850.06
2022-07-25T02:53:07.728Z,97855.53
2022-07-25T02:55:11.716Z,97854.06
2022-07-25T02:57:14.768Z,97850.75
2022-07-25T02:59:19.151Z,97850.13
2022-07-25T03:01:22.331Z,97844.81
2022-07-25T03:03:25.367Z,97852.09
2022-07-25T03:05:28.606Z,97846.97
2022-07-25T03:07:32.765Z,97845.34
2022-07-25T03:09:35.788Z,97846.34
2022-07-25T03:11:38.938Z,97848.34
2022-07-25T03:13:42.067Z,97849.50
2022-07-25T03:15:46.537Z,97850.50
2022-07-25T03:17:49.575Z,97844.72
2022-07-25T03:19:52.836Z,97848.38
2022-07-25T03:21:55.882Z,97847.75
2022-07-25T03:23:58.967Z,97851.38
2022-07-25T03:26:02.143Z,97849.09
2022-07-25T03:28:05.432Z,97848.25
2022-07-25T03:30:10.004Z,97846.63
2022-07-25T03:32:14.629Z,97841.50
2022-07-25T03:34:17.713Z,97841.66
2022-07-25T03:36:20.693Z,97837.53
2022-07-25T03:38:24.679Z,97834.06
2022-07-25T03:40:28.101Z,97835.88
2022-07-25T03:42:35.218Z,97831.59
2022-07-25T03:44:39.028Z,97820.31
2022-07-25T03:46:42.027Z,97818.69
2022-07-25T03:48:46.639Z,97816.19
2022-07-25T03:50:49.629Z,97812.06
2022-07-25T03:52:52.745Z,97811.25
2022-07-25T03:54:55.833Z,97810.41
2022-07-25T03:56:58.891Z,97801.44
2022-07-25T03:59:01.955Z,97805.59
2022-07-25T04:01:05.030Z,97803.13
2022-07-25T04:03:13.736Z,97799.63
2022-07-25T04:05:18.184Z,97802.94
2022-07-25T04:07:21.227Z,97802.94
2022-07-25T04:09:24.492Z,97800.47
2022-07-25T04:11:28.112Z,97805.75
2022-07-25T04:13:31.186Z,97792.69
2022-07-25T04:15:34.211Z,97789.19
2022-07-25T04:17:39.673Z,97791.66
2022-07-25T04:19:42.856Z,97795.16
2022-07-25T04:21:48.388Z,97792.50
2022-07-25T04:23:51.955Z,97795.97
2022-07-25T04:25:54.956Z,97800.09
2022-07-25T04:27:58.011Z,97793.16
2022-07-25T04:30:01.239Z,97797.28
2022-07-25T04:32:04.736Z,97797.09
2022-07-25T04:34:08.417Z,97788.81
2022-07-25T04:36:11.972Z,97791.09
2022-07-25T04:38:16.428Z,97798.72
2022-07-25T04:40:19.571Z,97799.16
2022-07-25T04:42:22.643Z,97801.47
2022-07-25T04:44:25.736Z,97796.63
2022-07-25T04:46:28.815Z,97792.63
2022-07-25T04:48:31.871Z,97792.28
2022-07-25T04:50:34.978Z,97790.91
2022-07-25T04:52:38.002Z,97794.88
2022-07-25T04:54:42.468Z,97792.50
2022-07-25T04:56:45.584Z,97790.50
2022-07-25T04:58:49.310Z,97790.16
2022-07-25T05:00:52.659Z,97795.91
2022-07-25T05:02:55.770Z,97792.91
2022-07-25T05:04:58.835Z,97794.38
2022-07-25T05:07:06.066Z,97789.56
2022-07-25T05:09:09.149Z,97799.47
2022-07-25T05:11:13.548Z,97801.59
2022-07-25T05:13:16.668Z,97793.09
2022-07-25T05:15:20.005Z,97791.88
2022-07-25T05:17:23.011Z,97795.66
2022-07-25T05:19:26.190Z,97787.78
2022-07-25T05:21:29.317Z,97796.69
2022-07-25T05:23:32.534Z,97796.16
2022-07-25T05:25:35.644Z,97794.41
2022-07-25T05:27:40.438Z,97791.56
2022-07-25T05:29:43.496Z,97795.31
2022-07-25T05:31:47.030Z,97797.44
2022-07-25T05:33:50.221Z,97792.03
2022-07-25T05:35:53.549Z,97795.28
2022-07-25T05:37:56.623Z,97805.19
2022-07-25T05:39:59.664Z,97796.81
2022-07-25T05:42:02.764Z,97798.38
2022-07-25T05:44:07.697Z,97785.91
2022-07-25T05:46:11.056Z,97796.84
2022-07-25T05:48:14.245Z,97790.59
2022-07-25T05:50:17.378Z,97794.59
2022-07-25T05:52:20.477Z,97792.00
2022-07-25T05:54:24.402Z,97800.06
2022-07-25T05:56:42.218Z,97799.28
2022-07-25T05:58:46.128Z,97800.28
2022-07-25T06:00:51.027Z,97805.53
2022-07-25T06:02:54.446Z,97807.84
2022-07-25T06:04:57.521Z,97801.72
2022-07-25T06:07:00.623Z,97803.16
2022-07-25T06:09:03.653Z,97806.00
2022-07-25T06:11:11.278Z,97808.00
2022-07-25T06:13:14.457Z,97806.69
2022-07-25T06:15:22.536Z,97801.03
2022-07-25T06:17:32.724Z,97801.22
2022-07-25T06:19:35.981Z,97798.38
2022-07-25T06:21:38.997Z,97793.44
2022-07-25T06:23:42.032Z,97792.84
2022-07-25T06:25:50.004Z,97787.22
2022-07-25T06:27:53.630Z,97788.38
2022-07-25T06:29:56.699Z,97793.03
2022-07-25T06:31:59.765Z,97786.59
2022-07-25T06:34:04.435Z,97784.69
2022-07-25T06:36:08.482Z,97781.13
2022-07-25T06:38:11.574Z,97786.56
2022-07-25T06:40:14.718Z,97781.13
2022-07-25T06:42:17.788Z,97784.06
2022-07-25T06:44:20.844Z,97778.44
2022-07-25T06:46:23.993Z,97775.16
2022-07-25T06:48:27.183Z,97775.03
2022-07-25T06:50:31.788Z,97774.38
2022-07-25T06:52:35.115Z,97782.50
2022-07-25T06:54:38.128Z,97776.84
2022-07-25T06:56:41.153Z,97774.59
2022-07-25T06:58:46.757Z,97781.84
2022-07-25T07:00:50.279Z,97772.25
2022-07-25T07:02:56.261Z,97772.56
2022-07-25T07:05:01.042Z,97780.94
2022-07-25T07:07:05.709Z,97783.84
2022-07-25T07:09:08.777Z,97782.38
2022-07-25T07:11:13.359Z,97773.41
2022-07-25T07:13:23.703Z,97776.91
2022-07-25T07:15:27.595Z,97768.75
2022-07-25T07:17:30.735Z,97764.78
2022-07-25T07:19:33.916Z,97771.44
2022-07-25T07:21:36.997Z,97760.72
2022-07-25T07:23:41.449Z,97769.81
2022-07-25T07:25:45.795Z,97763.34
2022-07-25T07:27:49.435Z,97762.31
2022-07-25T07:29:52.497Z,97755.91
2022-07-25T07:31:55.666Z,97759.84
2022-07-25T07:33:59.323Z,97759.63
2022-07-25T07:36:02.658Z,97761.31
2022-07-25T07:38:05.755Z,97756.78
2022-07-25T07:40:17.215Z,97753.81
2022-07-25T07:42:21.198Z,97757.13
2022-07-25T07:44:24.376Z,97747.94
2022-07-25T07:46:27.629Z,97752.88
2022-07-25T07:48:31.578Z,97748.28
2022-07-25T07:50:34.910Z,97748.81
2022-07-25T07:52:38.649Z,97749.38
2022-07-25T07:54:59.636Z,97746.94
2022-07-25T07:57:04.141Z,97739.34
2022-07-25T07:59:07.714Z,97745.03
2022-07-25T08:01:11.153Z,97742.34
2022-07-25T08:03:14.836Z,97737.94
2022-07-25T08:05:22.588Z,97734.44
2022-07-25T08:07:25.775Z,97725.72
2022-07-25T08:09:28.902Z,97734.72
2022-07-25T08:11:32.083Z,97726.31
2022-07-25T08:13:38.078Z,97728.47
2022-07-25T08:15:41.463Z,97723.84
2022-07-25T08:17:45.095Z,97728.19
2022-07-25T08:19:48.198Z,97730.34
2022-07-25T08:21:51.244Z,97726.00
2022-07-25T08:23:54.296Z,97736.34
2022-07-25T08:25:57.698Z,97727.09
2022-07-25T08:28:00.792Z,97731.72
2022-07-25T08:30:06.415Z,97736.06
2022-07-25T08:32:09.588Z,97740.13
2022-07-25T08:34:13.754Z,97741.50
2022-07-25T08:36:16.917Z,97738.47
2022-07-25T08:38:20.426Z,97739.81
2022-07-25T08:40:26.063Z,97733.56
2022-07-25T08:42:29.149Z,97736.53
2022-07-25T08:44:37.518Z,97740.59
2022-07-25T08:46:43.667Z,97738.91
2022-07-25T08:48:46.855Z,97739.50
2022-07-25T08:50:51.161Z,97734.63
2022-07-25T08:53:10.051Z,97730.47
2022-07-25T08:55:20.171Z,97729.94
2022-07-25T08:57:23.332Z,97728.84
2022-07-25T08:59:26.384Z,97733.75
2022-07-25T09:01:34.753Z,97728.31
2022-07-25T09:03:40.245Z,97726.94
2022-07-25T09:05:43.832Z,97729.41
2022-07-25T09:07:46.975Z,97731.84
2022-07-25T09:09:50.045Z,97734.00
2022-07-25T09:11:53.040Z,97731.31
2022-07-25T09:14:00.739Z,97725.88
2022-07-25T09:16:05.606Z,97729.72
2022-07-25T09:18:13.103Z,97728.09
2022-07-25T09:20:22.131Z,97717.72
2022-07-25T09:22:25.304Z,97728.59
2022-07-25T09:24:29.142Z,97725.06
2022-07-25T09:26:32.244Z,97721.22
2022-07-25T09:28:41.344Z,97732.13
2022-07-25T09:30:55.524Z,97729.63
2022-07-25T09:33:02.567Z,97730.72
2022-07-25T09:35:06.450Z,97727.47
2022-07-25T09:37:12.961Z,97719.56
2022-07-25T09:39:16.108Z,97718.16
2022-07-25T09:41:19.963Z,97714.69
2022-07-25T09:43:23.582Z,97716.03
2022-07-25T09:45:31.316Z,97712.72
2022-07-25T09:47:36.867Z,97720.03
2022-07-25T09:49:42.016Z,97713.03
2022-07-25T09:51:45.582Z,97711.66
2022-07-25T09:53:50.099Z,97704.88
2022-07-25T09:55:55.134Z,97713.28
2022-07-25T09:58:01.464Z,97713.28
2022-07-25T10:00:06.400Z,97711.56
2022-07-25T10:02:23.265Z,97713.16
2022-07-25T10:04:37.436Z,97706.63
2022-07-25T10:06:42.254Z,97702.53
2022-07-25T10:08:45.776Z,97701.69
2022-07-25T10:10:50.344Z,97695.19
2022-07-25T10:13:07.843Z,97696.31
2022-07-25T10:15:14.840Z,97691.44
2022-07-25T10:17:22.347Z,97690.09
2022-07-25T10:19:58.276Z,97684.94
2022-07-25T10:22:01.915Z,97688.22
2022-07-25T10:24:07.525Z,97692.78
2022-07-25T10:26:14.006Z,97684.91
2022-07-25T10:28:20.136Z,97682.19
2022-07-25T10:30:24.309Z,97672.09
2022-07-25T10:32:27.687Z,97679.44
2022-07-25T10:34:31.966Z,97678.69
2022-07-25T10:36:45.509Z,97670.25
2022-07-25T10:38:51.578Z,97670.50
2022-07-25T10:40:54.813Z,97675.94
2022-07-25T10:43:02.725Z,97670.16
2022-07-25T10:45:09.516Z,97662.56
2022-07-25T10:47:13.853Z,97656.56
2022-07-25T10:49:29.087Z,97657.63
2022-07-25T10:51:41.327Z,97658.16
2022-07-25T10:53:46.364Z,97655.97
2022-07-25T10:56:05.682Z,97656.78
2022-07-25T10:58:18.261Z,97651.88
2022-07-25T11:00:22.022Z,97652.41
2022-07-25T11:02:25.351Z,97654.84
2022-07-25T11:04:29.545Z,97644.53
2022-07-25T11:06:35.222Z,97643.66
2022-07-25T11:08:38.421Z,97642.41
2022-07-25T11:10:41.576Z,97634.00
2022-07-25T11:12:45.800Z,97642.94
2022-07-25T11:14:50.388Z,97630.91
2022-07-25T11:16:57.013Z,97638.47
2022-07-25T11:19:02.193Z,97635.44
2022-07-25T11:21:07.431Z,97630.22
2022-07-25T11:23:10.514Z,97628.28
2022-07-25T11:25:14.746Z,97631.22
2022-07-25T11:27:24.425Z,97623.31
2022-07-25T11:29:28.097Z,97614.59
2022-07-25T11:31:36.043Z,97621.97
2022-07-25T11:33:39.535Z,97613.50
2022-07-25T11:35:42.840Z,97614.59
2022-07-25T11:37:48.938Z,97615.69
2022-07-25T11:39:52.994Z,97610.78
2022-07-25T11:42:06.746Z,97600.16
2022-07-25T11:44:09.824Z,97607.59
2022-07-25T11:46:13.059Z,97606.81
2022-07-25T11:48:19.676Z,97596.44
2022-07-25T11:50:30.304Z,97601.34
2022-07-25T11:52:35.804Z,97603.22
2022-07-25T11:54:38.961Z,97596.66
2022-07-25T11:56:43.892Z,97597.50
2022-07-25T11:58:57.846Z,97602.38
2022-07-25T12:01:00.984Z,97590.13
2022-07-25T12:03:08.583Z,97592.53
2022-07-25T12:05:15.458Z,97587.66
2022-07-25T12:07:18.598Z,97588.47
2022-07-25T12:09:23.128Z,97575.38
2022-07-25T12:11:26.229Z,97575.38
2022-07-25T12:13:30.489Z,97575.91
2022-07-25T12:15:36.436Z,97579.72
2022-07-25T12:17:39.665Z,97574.56
2022-07-25T12:19:47.014Z,97568.69
2022-07-25T12:21:51.636Z,97563.97
2022-07-25T12:23:54.849Z,97568.69
2022-07-25T12:25:58.034Z,97567.56
2022-07-25T12:28:01.683Z,97567.78
2022-07-25T12:30:05.663Z,97562.91
2022-07-25T12:32:08.905Z,97560.97
2022-07-25T12:34:12.016Z,97563.66
2022-07-25T12:36:15.104Z,97561.50
2022-07-25T12:38:19.736Z,97562.00
2022-07-25T12:40:22.856Z,97561.38
2022-07-25T12:42:27.134Z,97562.88
2022-07-25T12:44:30.118Z,97559.53
2022-07-25T12:46:33.352Z,97562.47
2022-07-25T12:48:37.642Z,97559.34
2022-07-25T12:50:40.742Z,97558.47
2022-07-25T12:52:44.592Z,97559.56
2022-07-25T12:54:49.796Z,97562.56
2022-07-25T12:56:53.191Z,97558.19
2022-07-25T12:58:56.303Z,97548.09
2022-07-25T13:01:01.282Z,97559.25
2022-07-25T13:03:06.660Z,97553.53
2022-07-25T13:05:12.946Z,97556.91
2022-07-25T13:07:16.652Z,97545.63
2022-07-25T13:09:19.758Z,97541.94
2022-07-25T13:11:24.276Z,97547.47
2022-07-25T13:13:27.536Z,97548.94
2022-07-25T13:15:30.787Z,97544.31
2022-07-25T13:17:33.955Z,97539.66
2022-07-25T13:19:37.115Z,97545.16
2022-07-25T13:21:40.429Z,97544.94
2022-07-25T13:23:43.841Z,97549.88
2022-07-25T13:25:47.174Z,97543.44
2022-07-25T13:27:51.639Z,97546.47
2022-07-25T13:29:55.192Z,97552.22
2022-07-25T13:31:58.267Z,97543.81
2022-07-25T13:34:01.419Z,97544.84
2022-07-25T13:36:05.045Z,97548.13
2022-07-25T13:38:10.888Z,97554.69
2022-07-25T13:40:14.352Z,97546.53
2022-07-25T13:42:17.492Z,97550.34
2022-07-25T13:44:22.550Z,97553.63
2022-07-25T13:46:25.857Z,97553.13
2022-07-25T13:48:31.462Z,97548.81
2022-07-25T13:50:35.084Z,97555.91
2022-07-25T13:52:38.784Z,97546.66
2022-07-25T13:54:42.026Z,97543.94
2022-07-25T13:56:45.107Z,97545.31
2022-07-25T13:58:48.266Z,97542.84
2022-07-25T14:00:53.089Z,97541.47
2022-07-25T14:02:56.277Z,97540.06
2022-07-25T14:05:03.783Z,97541.66
2022-07-25T14:07:07.469Z,97539.72
2022-07-25T14:09:10.903Z,97532.09
2022-07-25T14:11:14.487Z,97528.00
2022-07-25T14:13:17.564Z,97527.69
2022-07-25T14:15:20.975Z,97527.41
2022-07-25T14:17:30.032Z,97534.81
2022-07-25T14:19:33.590Z,97533.78
2022-07-25T14:21:36.974Z,97534.63
2022-07-25T14:23:40.045Z,97531.41
2022-07-25T14:25:43.427Z,97536.91
2022-07-25T14:27:46.502Z,97535.88
2022-07-25T14:29:49.601Z,97539.94
2022-07-25T14:31:52.773Z,97532.63
2022-07-25T14:33:58.069Z,97521.22
2022-07-25T14:36:01.136Z,97520.97
2022-07-25T14:38:06.089Z,97521.25
2022-07-25T14:40:11.992Z,97513.91
2022-07-25T14:42:15.181Z,97512.00
2022-07-25T14:44:19.356Z,97523.19
2022-07-25T14:46:22.496Z,97520.72
2022-07-25T14:48:25.714Z,97512.06
2022-07-25T14:50:30.190Z,97516.13
2022-07-25T14:52:33.361Z,97509.91
2022-07-25T14:54:36.477Z,97511.81
2022-07-25T14:56:40.103Z,97516.16
2022-07-25T14:58:43.235Z,97520.22
2022-07-25T15:00:47.533Z,97515.88
2022-07-25T15:02:50.856Z,97522.66
2022-07-25T15:04:54.073Z,97513.72
2022-07-25T15:06:58.675Z,97525.91
2022-07-25T15:09:01.764Z,97522.38
2022-07-25T15:11:04.845Z,97528.88
2022-07-25T15:13:29.948Z,97519.41
2022-07-25T15:15:31.051Z,97520.75
2022-07-25T15:17:34.355Z,97515.34
2022-07-25T15:19:37.461Z,97515.84
2022-07-25T15:21:40.604Z,97515.59
2022-07-25T15:23:45.079Z,97514.50
2022-07-25T15:26:04.323Z,97512.34
2022-07-25T15:28:08.488Z,97516.94
2022-07-25T15:30:12.326Z,97508.00
2022-07-25T15:32:15.385Z,97514.22
2022-07-25T15:34:18.724Z,97506.38
2022-07-25T15:36:24.556Z,97510.44
2022-07-25T15:38:32.049Z,97500.09
2022-07-25T15:40:36.779Z,97495.19
2022-07-25T15:42:40.377Z,97502.28
2022-07-25T15:44:43.563Z,97499.84
2022-07-25T15:46:47.175Z,97499.00
2022-07-25T15:48:50.409Z,97497.94
2022-07-25T15:50:54.722Z,97508.28
2022-07-25T15:52:57.824Z,97515.34
2022-07-25T15:55:00.955Z,97524.81
2022-07-25T15:57:07.092Z,97531.84
2022-07-25T15:59:10.701Z,97539.41
2022-07-25T16:01:13.989Z,97532.63
2022-07-25T16:03:17.207Z,97532.00
2022-07-25T16:05:20.368Z,97530.34
2022-07-25T16:07:23.585Z,97531.94
2022-07-25T16:09:26.693Z,97539.69
2022-07-25T16:11:29.888Z,97545.03
2022-07-25T16:13:34.416Z,97536.31
2022-07-25T16:15:37.503Z,97533.00
2022-07-25T16:17:40.823Z,97532.34
2022-07-25T16:19:43.941Z,97527.72
2022-07-25T16:21:47.969Z,97532.59
2022-07-25T16:23:51.074Z,97530.28
2022-07-25T16:25:54.290Z,97523.03
2022-07-25T16:27:58.442Z,97530.91
2022-07-25T16:30:03.209Z,97526.00
2022-07-25T16:32:07.470Z,97516.50
2022-07-25T16:34:11.183Z,97514.03
2022-07-25T16:36:14.343Z,97520.97
2022-07-25T16:38:18.068Z,97521.75
2022-07-25T16:40:22.330Z,97523.13
2022-07-25T16:42:27.996Z,97530.47
2022-07-25T16:44:31.220Z,97530.78
2022-07-25T16:46:35.944Z,97526.75
2022-07-25T16:48:39.277Z,97524.34
2022-07-25T16:50:42.350Z,97518.63
2022-07-25T16:52:45.850Z,97522.94
2022-07-25T16:54:48.967Z,97514.19
2022-07-25T16:56:55.575Z,97515.75
2022-07-25T16:59:00.856Z,97507.59
2022-07-25T17:01:03.962Z,97515.09
2022-07-25T17:03:08.460Z,97510.47
2022-07-25T17:05:11.808Z,97512.63
2022-07-25T17:07:15.027Z,97516.72
2022-07-25T17:09:18.275Z,97508.09
2022-07-25T17:11:21.569Z,97509.47
2022-07-25T17:13:24.840Z,97505.44
2022-07-25T17:15:28.062Z,97498.69
2022-07-25T17:17:31.738Z,97505.19
2022-07-25T17:19:39.664Z,97512.25
2022-07-25T17:21:42.898Z,97509.00
2022-07-25T17:23:47.102Z,97510.59
2022-07-25T17:25:50.845Z,97501.41
2022-07-25T17:27:54.061Z,97508.16
2022-07-25T17:29:57.223Z,97501.94
2022-07-25T17:32:00.398Z,97499.50
2022-07-25T17:34:03.627Z,97504.88
2022-07-25T17:36:08.756Z,97502.97
2022-07-25T17:38:12.734Z,97506.69
2022-07-25T17:40:17.914Z,97511.81
2022-07-25T17:42:22.271Z,97510.41
2022-07-25T17:44:25.771Z,97511.75
2022-07-25T17:46:29.150Z,97514.66
2022-07-25T17:48:32.354Z,97508.13
2022-07-25T17:50:35.521Z,97509.75
2022-07-25T17:52:40.049Z,97518.63
2022-07-25T17:54:43.375Z,97516.16
2022-07-25T17:56:46.818Z,97515.03
2022-07-25T17:58:49.886Z,97530.09
2022-07-25T18:00:56.849Z,97530.63
2022-07-25T18:03:02.763Z,97534.34
2022-07-25T18:05:06.948Z,97545.13
2022-07-25T18:07:10.131Z,97540.72
2022-07-25T18:09:14.577Z,97545.22
2022-07-25T18:11:17.909Z,97536.81
2022-07-25T18:13:21.986Z,97539.47
2022-07-25T18:15:25.435Z,97545.09
2022-07-25T18:17:28.532Z,97546.66
2022-07-25T18:19:31.695Z,97547.09
2022-07-25T18:21:34.932Z,97552.69
2022-07-25T18:23:38.028Z,97547.47
2022-07-25T18:25:42.523Z,97562.25
2022-07-25T18:27:47.040Z,97561.00
2022-07-25T18:29:50.250Z,97564.41
2022-07-25T18:31:53.484Z,97557.84
2022-07-25T18:33:57.079Z,97564.84
2022-07-25T18:36:04.088Z,97571.47
2022-07-25T18:38:11.538Z,97571.06
2022-07-25T18:40:14.889Z,97585.25
2022-07-25T18:42:19.548Z,97600.72
2022-07-25T18:44:22.730Z,97603.28
2022-07-25T18:46:26.024Z,97609.97
2022-07-25T18:48:29.190Z,97616.28
2022-07-25T18:50:32.445Z,97621.50
2022-07-25T18:52:36.287Z,97617.56
2022-07-25T18:54:39.479Z,97626.00
2022-07-25T18:56:44.002Z,97632.28
2022-07-25T18:58:48.484Z,97640.19
2022-07-25T19:00:51.625Z,97648.41
2022-07-25T19:02:54.910Z,97649.13
2022-07-25T19:04:58.109Z,97663.56
2022-07-25T19:07:01.412Z,97661.56
2022-07-25T19:09:04.760Z,97653.66
2022-07-25T19:11:08.540Z,97676.09
2022-07-25T19:13:26.835Z,97680.31
2022-07-25T19:15:36.599Z,97686.66
2022-07-25T19:17:39.905Z,97682.22
2022-07-25T19:19:43.907Z,97687.50
2022-07-25T19:21:47.101Z,97691.13
2022-07-25T19:23:51.362Z,97694.19
2022-07-25T19:25:55.225Z,97692.78
2022-07-25T19:27:58.337Z,97698.19
2022-07-25T19:30:01.602Z,97707.72
2022-07-25T19:32:07.176Z,97703.75
2022-07-25T19:34:11.051Z,97716.00
2022-07-25T19:36:14.788Z,97709.94
2022-07-25T19:38:17.913Z,97711.91
2022-07-25T19:40:21.066Z,97717.75
2022-07-25T19:42:24.189Z,97724.06
2022-07-25T19:44:27.276Z,97736.34
2022-07-25T19:46:33.530Z,97742.41
2022-07-25T19:48:38.242Z,97741.22
2022-07-25T19:50:41.807Z,97734.06
2022-07-25T19:52:45.211Z,97744.31
2022-07-25T19:54:48.394Z,97746.03
2022-07-25T19:56:51.559Z,97746.72
2022-07-25T19:58:54.777Z,97749.88
2022-07-25T20:00:57.958Z,97753.09
2022-07-25T20:03:01.478Z,97764.31
2022-07-25T20:05:06.402Z,97762.06
2022-07-25T20:07:09.479Z,97757.16
2022-07-25T20:09:12.606Z,97764.84
2022-07-25T20:11:16.799Z,97766.56
2022-07-25T20:13:19.861Z,97766.78
2022-07-25T20:15:23.104Z,97763.53
2022-07-25T20:17:26.714Z,97766.03
2022-07-25T20:19:29.960Z,97765.06
2022-07-25T20:21:34.550Z,97766.31
2022-07-25T20:23:38.164Z,97771.56
2022-07-25T20:25:41.243Z,97774.47
2022-07-25T20:27:44.358Z,97782.13
2022-07-25T20:29:47.431Z,97774.50
2022-07-25T20:31:52.636Z,97784.75
2022-07-25T20:33:56.076Z,97789.31
2022-07-25T20:35:59.842Z,97786.22
2022-07-25T20:38:09.490Z,97785.84
2022-07-25T20:40:13.671Z,97781.16
2022-07-25T20:42:16.866Z,97780.78
2022-07-25T20:44:20.020Z,97772.13
2022-07-25T20:46:23.497Z,97783.91
2022-07-25T20:48:27.123Z,97781.06
2022-07-25T20:50:30.274Z,97778.81
2022-07-25T20:52:33.678Z,97795.34
2022-07-25T20:54:39.185Z,97786.91
2022-07-25T20:56:42.258Z,97790.25
2022-07-25T20:58:45.329Z,97798.16
2022-07-25T21:00:48.366Z,97803.34
2022-07-25T21:02:51.798Z,97819.25
2022-07-25T21:04:54.993Z,97813.75
2022-07-25T21:06:58.067Z,97814.41
2022-07-25T21:09:01.237Z,97815.88
2022-07-25T21:11:06.218Z,97811.16
2022-07-25T21:13:09.266Z,97807.50
2022-07-25T21:15:12.931Z,97808.97
2022-07-25T21:17:15.997Z,97808.81
2022-07-25T21:19:19.033Z,97812.31
2022-07-25T21:21:22.133Z,97811.31
2022-07-25T21:23:26.373Z,97819.56
2022-07-25T21:25:29.418Z,97826.41
2022-07-25T21:27:33.859Z,97821.69
2022-07-25T21:29:37.098Z,97833.28
2022-07-25T21:31:40.241Z,97834.72
2022-07-25T21:33:43.310Z,97837.84
2022-07-25T21:35:50.458Z,97834.56
2022-07-25T21:37:56.154Z,97827.16
2022-07-25T21:39:59.181Z,97835.84
2022-07-25T21:42:02.253Z,97848.00
2022-07-25T21:44:08.654Z,97854.22
2022-07-25T21:46:11.853Z,97860.00
2022-07-25T21:48:15.109Z,97867.84
2022-07-25T21:50:35.716Z,97867.84
2022-07-25T21:52:45.271Z,97876.91
2022-07-25T21:54:48.580Z,97877.97
2022-07-25T21:56:52.559Z,97880.44
2022-07-25T21:58:55.768Z,97883.53
2022-07-25T22:01:00.407Z,97878.38
2022-07-25T22:03:03.475Z,97878.78
2022-07-25T22:05:07.323Z,97884.56
2022-07-25T22:07:10.408Z,97882.94
2022-07-25T22:09:13.675Z,97884.19
2022-07-25T22:11:39.093Z,97883.78
2022-07-25T22:13:43.032Z,97883.16
2022-07-25T22:15:46.248Z,97882.16
2022-07-25T22:17:50.653Z,97883.59
2022-07-25T22:19:53.710Z,97885.66
2022-07-25T22:21:56.808Z,97881.53
2022-07-25T22:23:59.846Z,97889.16
2022-07-25T22:26:03.131Z,97886.69
2022-07-25T22:28:06.584Z,97887.91
2022-07-25T22:30:18.705Z,97886.50
2022-07-25T22:32:22.438Z,97891.63
2022-07-25T22:34:27.008Z,97891.03
2022-07-25T22:36:30.006Z,97893.47
2022-07-25T22:38:33.088Z,97899.44
2022-07-25T22:40:36.146Z,97901.91
2022-07-25T22:42:39.248Z,97899.22
2022-07-25T22:44:42.332Z,97894.69
2022-07-25T22:46:46.127Z,97896.56
2022-07-25T22:48:49.224Z,97901.09
2022-07-25T22:50:53.737Z,97905.81
2022-07-25T22:52:56.747Z,97915.06
2022-07-25T22:54:59.746Z,97921.03
2022-07-25T22:57:02.964Z,97929.44
2022-07-25T22:59:06.250Z,97937.84
2022-07-25T23:01:10.150Z,97939.72
2022-07-25T23:03:13.248Z,97939.91
2022-07-25T23:05:16.300Z,97939.91
2022-07-25T23:07:20.778Z,97949.59
2022-07-25T23:09:24.349Z,97944.25
2022-07-25T23:11:39.377Z,97945.25
2022-07-25T23:13:42.366Z,97939.31
2022-07-25T23:15:51.121Z,97938.66
2022-07-25T23:17:54.380Z,97949.34
2022-07-25T23:19:57.589Z,97946.88
2022-07-25T23:22:00.641Z,97943.56
2022-07-25T23:24:05.597Z,97950.75
2022-07-25T23:26:08.669Z,97951.56
2022-07-25T23:28:11.678Z,97962.00
2022-07-25T23:30:16.513Z,97963.84
2022-07-25T23:32:19.935Z,97966.28
2022-07-25T23:34:23.021Z,97967.09
2022-07-25T23:36:26.085Z,97967.09
2022-07-25T23:38:29.158Z,97973.47
2022-07-25T23:40:33.498Z,97975.53
2022-07-25T23:42:36.515Z,97970.19
2022-07-25T23:44:42.049Z,97963.56
2022-07-25T23:46:47.583Z,97960.88
2022-07-25T23:48:50.604Z,97963.50
2022-07-25T23:50:53.684Z,97959.16
2022-07-25T23:52:56.725Z,97960.72
2022-07-25T23:54:59.722Z,97963.09
2022-07-25T23:57:04.292Z,97964.50
2022-07-25T23:59:07.643Z,97959.31
